Time;durP1;ratioP1;P1;durP2;ratioP2;P2;SDS_P1;SDS_P2;PMS_P1;PMS_P2;Temp;Humidity;BMP_temperature;BMP_pressure;BME280_temperature;BME280_humidity;BME280_pressure;Samples;Min_cycle;Max_cycle;Signal;HPM_P1;HPM_P2
2023/09/24 00:01:16;;;;;;;8.80;2.67;;;13.40;99.90;;;;;;5035111;28;20178;-83
2023/09/24 00:03:43;;;;;;;4.85;2.58;;;13.40;99.90;;;;;;5034138;28;20182;-83
2023/09/24 00:06:10;;;;;;;5.10;2.65;;;13.40;99.90;;;;;;5033786;28;20232;-84
2023/09/24 00:08:36;;;;;;;6.57;2.70;;;13.40;99.90;;;;;;5034997;28;20167;-83
2023/09/24 00:11:02;;;;;;;3.47;2.53;;;13.40;99.90;;;;;;5033733;28;20186;-84
2023/09/24 00:13:30;;;;;;;5.50;2.25;;;13.40;99.90;;;;;;5034684;28;20178;-83
2023/09/24 00:16:06;;;;;;;6.07;2.90;;;13.50;99.90;;;;;;5035074;28;20167;-84
2023/09/24 00:18:33;;;;;;;4.10;2.28;;;13.50;99.90;;;;;;5033329;28;20631;-84
2023/09/24 00:20:59;;;;;;;6.32;2.78;;;13.50;99.90;;;;;;5033637;28;20183;-84
2023/09/24 00:23:25;;;;;;;4.63;2.53;;;13.50;99.90;;;;;;5034660;28;20226;-84
2023/09/24 00:25:56;;;;;;;3.75;2.40;;;13.50;99.90;;;;;;5033625;28;20639;-85
2023/09/24 00:28:25;;;;;;;5.53;2.88;;;13.50;99.90;;;;;;5034997;28;20213;-83
2023/09/24 00:30:58;;;;;;;4.72;2.47;;;13.50;99.90;;;;;;5034571;28;20178;-82
2023/09/24 00:33:24;;;;;;;6.60;2.80;;;13.60;99.90;;;;;;5033012;28;20273;-83
2023/09/24 00:35:51;;;;;;;5.03;3.17;;;13.50;99.90;;;;;;5034697;28;20549;-83
2023/09/24 00:38:20;;;;;;;5.65;3.10;;;13.50;99.90;;;;;;5034425;28;20506;-84
2023/09/24 00:40:46;;;;;;;5.50;2.95;;;13.50;99.90;;;;;;5033368;28;20202;-83
2023/09/24 00:43:33;;;;;;;7.63;2.83;;;13.50;99.90;;;;;;5034369;28;20210;-82
2023/09/24 00:46:06;;;;;;;3.65;2.70;;;13.60;99.90;;;;;;5034371;28;20601;-83
2023/09/24 00:48:34;;;;;;;5.68;2.67;;;13.50;99.90;;;;;;5034233;28;20166;-83
2023/09/24 00:51:05;;;;;;;5.53;3.35;;;13.50;99.90;;;;;;5034438;28;20612;-83
2023/09/24 00:53:33;;;;;;;6.10;2.90;;;13.50;99.90;;;;;;5034345;28;20163;-84
2023/09/24 00:55:59;;;;;;;5.15;2.85;;;13.50;99.90;;;;;;5034235;28;20202;-83
2023/09/24 00:58:27;;;;;;;5.25;2.83;;;13.60;99.90;;;;;;5034253;28;20166;-83
2023/09/24 01:00:55;;;;;;;7.97;3.33;;;13.50;99.90;;;;;;5033049;28;20186;-83
2023/09/24 01:03:24;;;;;;;6.82;3.58;;;13.60;99.90;;;;;;5033606;28;20641;-84
2023/09/24 01:05:52;;;;;;;5.65;2.88;;;13.60;99.90;;;;;;5033088;28;20187;-83
2023/09/24 01:08:19;;;;;;;4.85;2.80;;;13.60;99.90;;;;;;5034201;28;20163;-84
2023/09/24 01:10:49;;;;;;;4.60;3.20;;;13.60;99.90;;;;;;5034060;28;20174;-83
2023/09/24 01:13:19;;;;;;;4.45;2.90;;;13.50;99.90;;;;;;5033931;28;20182;-83
2023/09/24 01:15:52;;;;;;;8.13;3.40;;;13.50;99.90;;;;;;5034069;28;20158;-83
2023/09/24 01:18:19;;;;;;;6.07;2.90;;;13.50;99.90;;;;;;5033842;28;20178;-84
2023/09/24 01:20:45;;;;;;;5.30;3.05;;;13.50;99.90;;;;;;5033983;28;20298;-84
2023/09/24 01:23:14;;;;;;;5.68;3.10;;;13.50;99.90;;;;;;5033680;28;20305;-84
2023/09/24 01:25:43;;;;;;;7.53;3.45;;;13.50;99.90;;;;;;5032599;28;20229;-84
2023/09/24 01:28:10;;;;;;;3.65;2.88;;;13.50;99.90;;;;;;5033298;28;20195;-84
2023/09/24 01:30:37;;;;;;;6.15;3.08;;;13.50;99.90;;;;;;5033983;28;20166;-84
2023/09/24 01:33:03;;;;;;;5.40;2.95;;;13.50;99.90;;;;;;5032518;28;20182;-83
2023/09/24 01:35:30;;;;;;;5.65;2.90;;;13.40;99.90;;;;;;5033595;28;20605;-84
2023/09/24 01:38:06;;;;;;;5.97;3.33;;;13.40;99.90;;;;;;5049018;28;20503;-83
2023/09/24 01:40:38;;;;;;;6.28;3.30;;;13.40;99.90;;;;;;5033880;28;20168;-83
2023/09/24 01:43:08;;;;;;;4.60;2.72;;;13.40;99.90;;;;;;5032402;28;20263;-83
2023/09/24 01:45:39;;;;;;;5.75;3.53;;;13.50;99.90;;;;;;5032449;28;20182;-84
2023/09/24 01:48:06;;;;;;;6.60;3.20;;;13.40;99.90;;;;;;5032070;28;20624;-83
2023/09/24 01:50:33;;;;;;;9.00;3.28;;;13.50;99.90;;;;;;5033698;28;20265;-84
2023/09/24 01:52:59;;;;;;;11.73;3.67;;;13.50;99.90;;;;;;5032479;28;20179;-85
2023/09/24 01:55:29;;;;;;;5.30;3.13;;;13.50;99.90;;;;;;5032479;28;20540;-85
2023/09/24 01:57:56;;;;;;;6.20;3.65;;;13.50;99.90;;;;;;5033744;28;20602;-85
2023/09/24 02:00:26;;;;;;;6.78;3.35;;;13.50;99.90;;;;;;5032530;28;20186;-86
2023/09/24 02:02:58;;;;;;;6.20;3.58;;;13.50;99.90;;;;;;5033341;28;20217;-84
2023/09/24 02:05:24;;;;;;;4.00;2.97;;;13.50;99.90;;;;;;5032249;28;20174;-87
2023/09/24 02:07:50;;;;;;;5.57;3.40;;;13.50;99.90;;;;;;5032415;28;20182;-84
2023/09/24 02:10:20;;;;;;;6.43;3.72;;;13.50;99.90;;;;;;5033707;28;20609;-85
2023/09/24 02:12:46;;;;;;;6.18;3.17;;;13.50;99.90;;;;;;5033607;28;20179;-84
2023/09/24 02:15:17;;;;;;;6.22;3.40;;;13.50;99.90;;;;;;5033792;28;20186;-85
2023/09/24 02:17:48;;;;;;;4.15;3.03;;;13.40;99.90;;;;;;5032259;28;20257;-85
2023/09/24 02:20:18;;;;;;;4.90;2.72;;;13.40;99.90;;;;;;5032034;28;20189;-85
2023/09/24 02:22:50;;;;;;;5.93;3.53;;;13.40;99.90;;;;;;5031923;28;20238;-87
2023/09/24 02:25:20;;;;;;;6.82;2.80;;;13.40;99.90;;;;;;5032852;28;20178;-83
2023/09/24 02:27:50;;;;;;;4.07;3.00;;;13.40;99.90;;;;;;5037244;28;20535;-85
2023/09/24 02:30:17;;;;;;;5.95;3.13;;;13.40;99.90;;;;;;5037214;28;20601;-85
2023/09/24 02:32:44;;;;;;;5.45;2.80;;;13.50;99.90;;;;;;5035650;28;20174;-85
2023/09/24 02:35:12;;;;;;;4.38;3.10;;;13.50;99.90;;;;;;5035680;28;20182;-85
2023/09/24 02:37:41;;;;;;;5.43;3.25;;;13.50;99.90;;;;;;5035826;28;20236;-84
2023/09/24 02:40:10;;;;;;;6.90;3.05;;;13.50;99.90;;;;;;5037030;28;20178;-84
2023/09/24 02:42:37;;;;;;;6.13;3.55;;;13.40;99.90;;;;;;5035577;28;20274;-86
2023/09/24 02:45:04;;;;;;;6.65;3.33;;;13.40;99.90;;;;;;5036763;28;20186;-85
2023/09/24 02:47:30;;;;;;;5.88;3.55;;;13.40;99.90;;;;;;5037007;28;20194;-85
2023/09/24 02:49:56;;;;;;;6.07;3.50;;;13.50;99.90;;;;;;5035333;28;20584;-87
2023/09/24 02:52:22;;;;;;;6.88;3.80;;;13.40;99.90;;;;;;5036742;28;20202;-88
2023/09/24 02:54:48;;;;;;;5.68;3.97;;;13.40;99.90;;;;;;5035437;28;20182;-83
2023/09/24 02:57:14;;;;;;;7.75;3.85;;;13.40;99.90;;;;;;5036546;28;20179;-87
2023/09/24 02:59:39;;;;;;;9.93;4.10;;;13.40;99.90;;;;;;5036369;28;20672;-86
2023/09/24 03:02:05;;;;;;;5.97;3.67;;;13.40;99.90;;;;;;5035422;28;20206;-87
2023/09/24 03:04:31;;;;;;;7.07;3.38;;;13.50;99.90;;;;;;5036571;28;20228;-87
2023/09/24 03:06:56;;;;;;;4.10;3.70;;;13.50;99.90;;;;;;5036573;28;20206;-87
2023/09/24 03:09:22;;;;;;;5.15;3.80;;;13.50;99.90;;;;;;5035339;28;20605;-87
2023/09/24 03:11:48;;;;;;;4.85;3.90;;;13.40;99.90;;;;;;5036594;28;20178;-85
2023/09/24 03:14:14;;;;;;;8.00;4.15;;;13.40;99.90;;;;;;5036498;28;20246;-87
2023/09/24 03:16:39;;;;;;;6.63;4.10;;;13.40;99.90;;;;;;5035278;28;20189;-86
2023/09/24 03:19:05;;;;;;;5.57;3.60;;;13.40;99.90;;;;;;5034980;28;20266;-87
2023/09/24 03:21:31;;;;;;;7.32;3.53;;;13.40;99.90;;;;;;5036445;28;20175;-85
2023/09/24 03:23:59;;;;;;;6.47;3.35;;;13.40;99.90;;;;;;5035093;28;20234;-87
2023/09/24 03:26:26;;;;;;;9.93;3.60;;;13.40;99.90;;;;;;5036491;28;20163;-88
2023/09/24 03:28:52;;;;;;;7.53;3.92;;;13.40;99.90;;;;;;5036599;28;20254;-88
2023/09/24 03:31:17;;;;;;;4.05;3.45;;;13.30;99.90;;;;;;5035070;28;20229;-87
2023/09/24 03:33:43;;;;;;;4.22;3.83;;;13.20;99.90;;;;;;5034398;28;20687;-85
2023/09/24 03:36:10;;;;;;;4.65;3.72;;;13.10;99.90;;;;;;5035519;28;20171;-83
2023/09/24 03:38:36;;;;;;;5.22;3.63;;;13.10;99.90;;;;;;5033365;28;20565;-84
2023/09/24 03:41:03;;;;;;;5.28;3.75;;;13.10;99.90;;;;;;5035628;28;20606;-85
2023/09/24 03:43:29;;;;;;;3.88;3.50;;;13.10;99.90;;;;;;5035608;28;20229;-84
2023/09/24 03:45:56;;;;;;;7.25;3.92;;;13.00;99.90;;;;;;5035685;28;20223;-85
2023/09/24 03:48:23;;;;;;;5.80;3.70;;;13.00;99.90;;;;;;5035553;28;20482;-84
2023/09/24 03:50:50;;;;;;;6.68;3.95;;;12.90;99.90;;;;;;5035233;28;20167;-84
2023/09/24 03:53:18;;;;;;;6.65;4.30;;;12.90;99.90;;;;;;5035378;28;20257;-83
2023/09/24 03:55:48;;;;;;;6.85;3.67;;;12.80;99.90;;;;;;5034714;28;20174;-84
2023/09/24 03:58:14;;;;;;;5.25;3.50;;;12.70;99.90;;;;;;5035422;28;20162;-84
2023/09/24 04:00:41;;;;;;;3.97;3.58;;;12.60;99.90;;;;;;5034090;28;20182;-83
2023/09/24 04:03:08;;;;;;;4.03;3.20;;;12.60;99.90;;;;;;5035171;28;20202;-83
2023/09/24 04:05:34;;;;;;;5.25;3.53;;;12.60;99.90;;;;;;5033676;28;20174;-83
2023/09/24 04:08:01;;;;;;;6.80;3.22;;;12.60;99.90;;;;;;5033728;28;20179;-83
2023/09/24 04:10:28;;;;;;;6.30;3.40;;;12.60;99.90;;;;;;5033892;28;20517;-85
2023/09/24 04:12:54;;;;;;;5.30;3.42;;;12.60;99.90;;;;;;5035032;28;20179;-84
2023/09/24 04:15:27;;;;;;;6.10;3.85;;;12.60;99.90;;;;;;5035154;28;20171;-83
2023/09/24 04:17:53;;;;;;;5.03;3.47;;;12.60;99.90;;;;;;5033689;28;20178;-84
2023/09/24 04:20:20;;;;;;;4.90;3.50;;;12.60;99.90;;;;;;5033452;28;20269;-84
2023/09/24 04:22:46;;;;;;;4.15;3.75;;;12.60;99.90;;;;;;5034575;28;20237;-84
2023/09/24 04:25:16;;;;;;;6.97;3.92;;;12.60;99.90;;;;;;5034963;28;20166;-84
2023/09/24 04:27:43;;;;;;;12.13;9.23;;;12.50;99.90;;;;;;5033493;28;20269;-83
2023/09/24 04:30:16;;;;;;;7.60;6.78;;;12.50;99.90;;;;;;5034984;28;20593;-83
2023/09/24 04:32:43;;;;;;;7.63;4.57;;;12.40;99.90;;;;;;5034658;28;20492;-83
2023/09/24 04:35:12;;;;;;;6.75;4.57;;;12.40;99.90;;;;;;5033151;28;20665;-84
2023/09/24 04:37:39;;;;;;;4.35;3.83;;;12.40;99.90;;;;;;5033382;28;20609;-84
2023/09/24 04:40:07;;;;;;;7.10;3.97;;;12.40;99.90;;;;;;5033443;28;20575;-84
2023/09/24 04:42:34;;;;;;;4.90;4.13;;;12.40;99.90;;;;;;5032997;28;20229;-84
2023/09/24 04:45:00;;;;;;;4.90;3.58;;;12.30;99.90;;;;;;5033343;28;20522;-84
2023/09/24 04:47:27;;;;;;;4.28;3.70;;;12.30;99.90;;;;;;5034415;28;20183;-83
2023/09/24 04:49:52;;;;;;;4.85;3.80;;;12.20;99.90;;;;;;5033925;28;20155;-85
2023/09/24 04:52:18;;;;;;;5.10;4.35;;;12.30;99.90;;;;;;5034402;28;20182;-84
2023/09/24 04:54:45;;;;;;;6.13;4.22;;;12.30;99.90;;;;;;5033551;28;20178;-84
2023/09/24 04:57:11;;;;;;;7.57;4.63;;;12.40;99.90;;;;;;5034333;28;20167;-83
2023/09/24 04:59:36;;;;;;;4.68;4.20;;;12.40;99.90;;;;;;5032987;28;20171;-84
2023/09/24 05:02:02;;;;;;;5.65;5.03;;;12.50;99.90;;;;;;5034068;28;20276;-83
2023/09/24 05:04:28;;;;;;;7.55;4.95;;;12.60;99.90;;;;;;5032680;28;20560;-84
2023/09/24 05:06:54;;;;;;;7.68;5.28;;;12.60;99.90;;;;;;5032721;28;20273;-84
2023/09/24 05:09:21;;;;;;;7.50;5.47;;;12.60;99.90;;;;;;5032932;28;20209;-85
2023/09/24 05:11:47;;;;;;;6.82;5.45;;;12.70;99.90;;;;;;5032948;28;20186;-84
2023/09/24 05:14:13;;;;;;;7.30;6.03;;;12.60;99.90;;;;;;5032792;28;20174;-84
2023/09/24 05:16:39;;;;;;;6.78;4.40;;;12.60;99.90;;;;;;5033957;28;20659;-84
2023/09/24 05:19:05;;;;;;;6.63;4.32;;;12.60;99.90;;;;;;5032529;28;20171;-84
2023/09/24 05:21:31;;;;;;;6.28;4.60;;;12.60;99.90;;;;;;5032788;28;20186;-83
2023/09/24 05:23:57;;;;;;;6.03;5.10;;;12.60;99.90;;;;;;5034001;28;20195;-84
2023/09/24 05:26:23;;;;;;;11.18;5.57;;;12.60;99.90;;;;;;5034124;28;20511;-84
2023/09/24 05:28:49;;;;;;;7.07;4.75;;;12.70;99.90;;;;;;5033894;28;20167;-83
2023/09/24 05:31:16;;;;;;;5.75;5.15;;;12.70;99.90;;;;;;5032668;28;20221;-83
2023/09/24 05:33:44;;;;;;;8.00;5.20;;;12.80;99.90;;;;;;5032831;28;20182;-84
2023/09/24 05:36:10;;;;;;;10.25;5.47;;;12.90;99.90;;;;;;5032398;28;20182;-84
2023/09/24 05:38:36;;;;;;;7.20;5.47;;;12.90;99.90;;;;;;5032476;28;20269;-83
2023/09/24 05:41:02;;;;;;;6.18;5.35;;;13.00;99.90;;;;;;5032538;28;20261;-84
2023/09/24 05:43:28;;;;;;;5.70;5.10;;;13.00;99.90;;;;;;5032394;28;20213;-84
2023/09/24 05:45:53;;;;;;;6.82;5.78;;;13.00;99.90;;;;;;5032452;28;20198;-83
2023/09/24 05:48:19;;;;;;;6.00;5.10;;;13.00;99.90;;;;;;5033436;28;20236;-83
2023/09/24 05:50:45;;;;;;;7.22;5.53;;;13.00;99.90;;;;;;5033627;28;20245;-84
2023/09/24 05:53:12;;;;;;;6.40;5.70;;;13.10;99.90;;;;;;5032456;28;20559;-84
2023/09/24 05:55:50;;;;;;;10.05;5.55;;;13.00;99.90;;;;;;5032504;28;20182;-85
2023/09/24 05:58:16;;;;;;;7.35;5.95;;;13.00;99.90;;;;;;5032579;28;20179;-84
2023/09/24 06:00:44;;;;;;;6.65;5.38;;;13.10;99.90;;;;;;5033670;28;20515;-83
2023/09/24 06:03:10;;;;;;;8.45;5.68;;;13.10;99.90;;;;;;5036218;28;20300;-85
2023/09/24 06:05:39;;;;;;;7.28;6.13;;;13.10;99.90;;;;;;5036189;28;20174;-85
2023/09/24 06:08:05;;;;;;;7.00;6.15;;;13.10;99.90;;;;;;5036103;28;20182;-83
2023/09/24 06:10:32;;;;;;;7.20;6.32;;;13.10;99.90;;;;;;5037508;28;20163;-85
2023/09/24 06:12:58;;;;;;;9.20;6.50;;;13.10;99.90;;;;;;5037363;28;20193;-85
2023/09/24 06:15:23;;;;;;;8.07;5.72;;;13.20;99.90;;;;;;5037463;28;20547;-84
2023/09/24 06:17:49;;;;;;;9.05;6.78;;;13.20;99.90;;;;;;5035967;28;20487;-83
2023/09/24 06:20:16;;;;;;;8.23;6.82;;;13.20;99.90;;;;;;5037131;28;20190;-83
2023/09/24 06:22:43;;;;;;;8.73;6.75;;;13.30;99.90;;;;;;5036970;28;20234;-84
2023/09/24 06:25:09;;;;;;;8.40;6.10;;;13.30;99.90;;;;;;5035880;28;20189;-83
2023/09/24 06:27:35;;;;;;;8.57;6.35;;;13.40;99.90;;;;;;5035748;28;20333;-84
2023/09/24 06:30:04;;;;;;;9.50;7.18;;;13.40;99.90;;;;;;5035886;28;20249;-84
2023/09/24 06:32:29;;;;;;;7.22;6.53;;;13.50;99.90;;;;;;5023262;28;20253;-83
2023/09/24 06:34:55;;;;;;;8.05;7.10;;;13.50;99.90;;;;;;5020314;28;20183;-83
2023/09/24 06:37:21;;;;;;;12.65;7.25;;;13.60;99.90;;;;;;5017485;28;20186;-84
2023/09/24 06:39:47;;;;;;;11.85;7.60;;;13.60;99.90;;;;;;5016046;28;20171;-84
2023/09/24 06:42:12;;;;;;;10.82;8.32;;;13.60;99.90;;;;;;5015627;28;20610;-85
2023/09/24 06:44:38;;;;;;;8.48;7.57;;;13.70;99.90;;;;;;5017051;28;20632;-84
2023/09/24 06:47:04;;;;;;;9.73;7.82;;;13.70;99.90;;;;;;5017046;28;20229;-85
2023/09/24 06:49:30;;;;;;;9.77;7.63;;;13.70;99.90;;;;;;5015419;28;20171;-84
2023/09/24 06:51:55;;;;;;;9.35;8.35;;;13.80;99.90;;;;;;5015977;28;20569;-85
2023/09/24 06:54:21;;;;;;;12.32;8.55;;;13.90;99.90;;;;;;5028737;28;20630;-85
2023/09/24 06:56:47;;;;;;;11.15;8.45;;;13.90;99.90;;;;;;5025901;28;20490;-83
2023/09/24 06:59:12;;;;;;;10.77;7.95;;;13.90;99.90;;;;;;5034058;28;20233;-87
2023/09/24 07:01:39;;;;;;;13.85;8.75;;;14.00;99.90;;;;;;5033068;28;20618;-84
2023/09/24 07:04:08;;;;;;;14.43;7.57;;;14.00;99.90;;;;;;5025907;28;20209;-83
2023/09/24 07:06:33;;;;;;;8.93;7.25;;;14.10;99.90;;;;;;5025564;28;20221;-86
2023/09/24 07:09:00;;;;;;;10.68;7.60;;;14.10;99.90;;;;;;5024042;28;20183;-86
2023/09/24 07:11:34;;;;;;;10.65;7.95;;;14.20;99.90;;;;;;5023368;28;20206;-85
2023/09/24 07:14:01;;;;;;;11.63;8.00;;;14.20;99.90;;;;;;5019492;28;20338;-88
2023/09/24 07:16:27;;;;;;;11.85;7.68;;;14.30;99.90;;;;;;5020890;28;20178;-88
2023/09/24 07:18:54;;;;;;;13.85;8.18;;;14.30;99.90;;;;;;5035276;28;20186;-84
2023/09/24 07:21:22;;;;;;;9.55;7.45;;;14.40;99.90;;;;;;5021586;28;20175;-88
2023/09/24 07:23:51;;;;;;;9.15;7.97;;;14.50;99.90;;;;;;5029827;28;20673;-88
2023/09/24 07:26:17;;;;;;;9.88;7.60;;;14.50;99.90;;;;;;5031732;28;20190;-87
2023/09/24 07:28:50;;;;;;;10.38;7.60;;;14.60;99.90;;;;;;5032172;28;20286;-87
2023/09/24 07:31:21;;;;;;;9.68;7.43;;;14.70;99.90;;;;;;5034330;28;20277;-83
2023/09/24 07:33:53;;;;;;;8.55;6.80;;;14.80;99.90;;;;;;5030472;28;20712;-85
2023/09/24 07:36:19;;;;;;;11.32;8.73;;;14.90;99.90;;;;;;5032152;28;20183;-84
2023/09/24 07:38:45;;;;;;;9.25;8.05;;;15.00;99.90;;;;;;5023755;28;20168;-88
2023/09/24 07:41:12;;;;;;;9.57;7.60;;;15.00;99.90;;;;;;5025267;28;20215;-87
2023/09/24 07:43:39;;;;;;;9.77;7.35;;;15.10;99.90;;;;;;5029294;28;20302;-88
2023/09/24 07:46:06;;;;;;;10.05;7.38;;;15.10;99.90;;;;;;5035215;28;20174;-89
2023/09/24 07:48:32;;;;;;;10.57;7.10;;;15.10;99.90;;;;;;5025831;28;20176;-85
2023/09/24 07:51:00;;;;;;;8.15;7.22;;;15.10;99.90;;;;;;5016221;28;20206;-86
2023/09/24 07:53:26;;;;;;;9.52;6.80;;;15.20;99.90;;;;;;5015185;28;20183;-88
2023/09/24 07:55:56;;;;;;;9.27;7.22;;;15.20;99.90;;;;;;5015418;28;20183;-90
2023/09/24 07:58:24;;;;;;;9.07;6.25;;;15.30;99.90;;;;;;5015222;28;20190;-88
2023/09/24 08:00:52;;;;;;;6.72;5.18;;;15.30;99.90;;;;;;5015342;28;20167;-88
2023/09/24 08:03:18;;;;;;;8.45;5.50;;;15.20;99.90;;;;;;5020678;28;20214;-87
2023/09/24 08:05:44;;;;;;;10.00;5.63;;;15.20;99.90;;;;;;5035194;28;20508;-89
2023/09/24 08:08:10;;;;;;;10.27;6.20;;;15.20;99.90;;;;;;5035528;28;20224;-85
2023/09/24 08:10:36;;;;;;;7.22;5.90;;;15.10;99.90;;;;;;5034300;28;20570;-85
2023/09/24 08:13:04;;;;;;;8.63;6.13;;;15.10;99.90;;;;;;5033012;28;20212;-85
2023/09/24 08:15:30;;;;;;;8.73;6.30;;;15.10;99.90;;;;;;5033626;28;20621;-85
2023/09/24 08:17:56;;;;;;;7.30;5.60;;;15.10;99.90;;;;;;5030078;28;20178;-86
2023/09/24 08:20:22;;;;;;;8.55;6.22;;;15.20;99.90;;;;;;5033672;28;20182;-86
2023/09/24 08:22:48;;;;;;;8.98;5.43;;;15.30;99.90;;;;;;5032680;28;20708;-85
2023/09/24 08:25:14;;;;;;;9.30;5.80;;;15.40;99.90;;;;;;5034758;28;20174;-86
2023/09/24 08:27:40;;;;;;;8.05;5.82;;;15.60;99.90;;;;;;5033375;28;20190;-86
2023/09/24 08:30:06;;;;;;;8.88;5.20;;;15.70;99.90;;;;;;5034726;28;20166;-85
2023/09/24 08:32:32;;;;;;;9.57;5.30;;;15.70;99.90;;;;;;5034055;28;20269;-85
2023/09/24 08:34:58;;;;;;;7.97;4.80;;;15.70;99.90;;;;;;5034674;28;20266;-86
2023/09/24 08:37:24;;;;;;;7.97;4.57;;;15.80;99.90;;;;;;5034523;28;20617;-85
2023/09/24 08:39:49;;;;;;;5.28;4.72;;;15.80;99.90;;;;;;5033126;28;20625;-85
2023/09/24 08:42:19;;;;;;;7.85;5.35;;;16.00;99.90;;;;;;5034399;28;20249;-85
2023/09/24 08:44:54;;;;;;;7.53;4.45;;;16.10;99.90;;;;;;5032836;28;20626;-83
2023/09/24 08:47:20;;;;;;;5.30;3.65;;;16.30;99.90;;;;;;5032809;28;20202;-85
2023/09/24 08:49:48;;;;;;;5.03;3.22;;;16.40;99.90;;;;;;5032888;28;20195;-85
2023/09/24 08:52:17;;;;;;;4.78;2.78;;;16.40;99.90;;;;;;5034326;28;20598;-85
2023/09/24 08:54:44;;;;;;;5.18;3.10;;;16.50;99.90;;;;;;5034440;28;20182;-85
2023/09/24 08:57:10;;;;;;;6.70;3.13;;;16.40;99.90;;;;;;5032592;28;20179;-84
2023/09/24 08:59:39;;;;;;;5.30;3.63;;;16.40;99.90;;;;;;5032856;28;20193;-86
2023/09/24 09:02:04;;;;;;;6.22;3.42;;;16.50;99.90;;;;;;5033856;28;20201;-85
2023/09/24 09:04:30;;;;;;;6.28;3.33;;;16.60;99.90;;;;;;5032543;28;20182;-86
2023/09/24 09:07:11;;;;;;;7.72;3.22;;;16.50;99.90;;;;;;5034127;28;20175;-85
2023/09/24 09:09:36;;;;;;;2.38;1.70;;;16.50;99.90;;;;;;5013740;28;20589;-84
2023/09/24 09:12:03;;;;;;;2.90;1.70;;;16.40;99.90;;;;;;5012860;28;20206;-85
2023/09/24 09:14:34;;;;;;;2.65;1.35;;;16.30;99.90;;;;;;5014253;28;20266;-85
2023/09/24 09:17:00;;;;;;;3.05;1.30;;;16.10;99.90;;;;;;5012916;28;20207;-85
2023/09/24 09:19:27;;;;;;;3.40;1.27;;;16.00;99.90;;;;;;5013765;28;20845;-85
2023/09/24 09:21:53;;;;;;;2.90;1.58;;;15.90;99.90;;;;;;5017382;28;20242;-87
2023/09/24 09:24:23;;;;;;;2.35;1.25;;;15.90;99.90;;;;;;5021877;28;20240;-85
2023/09/24 09:26:56;;;;;;;4.53;1.50;;;15.90;99.90;;;;;;5034023;28;20177;-85
2023/09/24 09:29:23;;;;;;;3.47;1.52;;;16.10;99.90;;;;;;5032537;28;20198;-84
2023/09/24 09:31:50;;;;;;;4.13;1.40;;;16.10;99.90;;;;;;5033706;28;20159;-87
2023/09/24 09:34:16;;;;;;;3.88;1.70;;;16.20;99.90;;;;;;5034219;28;20170;-85
2023/09/24 09:36:42;;;;;;;2.65;1.40;;;16.30;99.90;;;;;;5036699;28;20228;-85
2023/09/24 09:39:09;;;;;;;1.65;1.25;;;16.20;99.90;;;;;;5037455;28;20182;-85
2023/09/24 09:41:38;;;;;;;1.98;1.30;;;16.30;99.90;;;;;;5036997;28;20186;-85
2023/09/24 09:44:07;;;;;;;3.63;1.30;;;16.50;99.90;;;;;;5032207;28;20182;-86
2023/09/24 09:46:34;;;;;;;3.45;1.50;;;16.70;99.90;;;;;;5026472;28;20183;-87
2023/09/24 09:49:07;;;;;;;3.97;1.48;;;16.90;99.90;;;;;;5026400;28;20232;-88
2023/09/24 09:51:48;;;;;;;1.98;1.33;;;17.10;99.90;;;;;;5023564;28;20170;-85
2023/09/24 09:54:15;;;;;;;3.55;1.65;;;17.20;99.90;;;;;;5027928;28;20213;-85
2023/09/24 09:56:41;;;;;;;4.85;1.33;;;17.20;99.90;;;;;;5030348;28;20193;-86
2023/09/24 09:59:08;;;;;;;2.72;1.27;;;17.20;99.90;;;;;;5025287;28;20649;-84
2023/09/24 10:01:34;;;;;;;3.10;1.38;;;17.20;99.90;;;;;;5036168;28;20222;-84
2023/09/24 10:04:03;;;;;;;3.35;1.55;;;17.30;99.90;;;;;;5033410;28;20175;-85
2023/09/24 10:06:33;;;;;;;2.55;1.27;;;17.30;99.90;;;;;;5036332;28;20228;-83
2023/09/24 10:08:59;;;;;;;6.13;1.17;;;17.40;99.90;;;;;;5029714;28;20167;-83
2023/09/24 10:11:33;;;;;;;1.67;1.00;;;17.50;99.90;;;;;;5034484;28;20175;-85
2023/09/24 10:14:05;;;;;;;1.95;1.00;;;17.50;99.90;;;;;;5024118;28;20332;-87
2023/09/24 10:16:37;;;;;;;2.40;0.98;;;17.60;99.90;;;;;;5030986;28;20212;-85
2023/09/24 10:19:08;;;;;;;1.08;0.88;;;17.60;99.90;;;;;;5029915;28;20185;-84
2023/09/24 10:21:36;;;;;;;3.40;1.10;;;17.70;99.90;;;;;;5024515;28;20193;-87
2023/09/24 10:24:14;;;;;;;1.52;1.08;;;17.70;99.90;;;;;;5024880;28;20274;-86
2023/09/24 10:27:05;;;;;;;2.13;1.10;;;17.60;99.90;;;;;;5017291;28;20202;-86
2023/09/24 10:29:46;;;;;;;2.38;1.10;;;17.50;99.90;;;;;;5015837;28;20190;-85
2023/09/24 10:32:13;;;;;;;5.03;1.27;;;17.40;99.90;;;;;;5017231;28;20175;-85
2023/09/24 10:34:54;;;;;;;1.92;1.00;;;17.30;99.90;;;;;;5016693;28;20306;-85
2023/09/24 10:37:24;;;;;;;1.75;1.20;;;17.10;99.90;;;;;;5015610;28;20182;-85
2023/09/24 10:39:58;;;;;;;2.65;1.50;;;17.20;99.90;;;;;;5017000;28;20171;-84
2023/09/24 10:42:37;;;;;;;3.40;1.40;;;17.30;99.90;;;;;;5015658;28;20300;-86
2023/09/24 10:45:09;;;;;;;2.13;1.23;;;17.40;99.90;;;;;;5017008;28;20712;-86
2023/09/24 10:47:37;;;;;;;2.25;1.05;;;17.30;99.90;;;;;;5015378;28;20186;-83
2023/09/24 10:50:08;;;;;;;1.83;1.20;;;17.20;99.90;;;;;;5035212;28;20178;-85
2023/09/24 10:52:49;;;;;;;2.85;1.30;;;17.00;99.90;;;;;;5035275;28;20617;-84
2023/09/24 10:55:33;;;;;;;2.63;1.17;;;16.90;99.90;;;;;;5035316;28;20178;-85
2023/09/24 10:58:01;;;;;;;2.05;1.13;;;16.80;99.90;;;;;;5035138;28;20182;-85
2023/09/24 11:00:28;;;;;;;3.03;1.00;;;16.90;99.90;;;;;;5035038;28;20178;-85
2023/09/24 11:02:59;;;;;;;3.25;1.20;;;17.10;99.90;;;;;;5036028;28;20677;-84
2023/09/24 11:05:27;;;;;;;2.22;1.20;;;17.30;99.90;;;;;;5034724;28;20174;-85
2023/09/24 11:07:56;;;;;;;0.95;0.73;;;17.40;99.90;;;;;;5051557;28;20301;-85
2023/09/24 11:10:24;;;;;;;2.88;0.98;;;17.30;99.90;;;;;;5036262;28;20209;-85
2023/09/24 11:12:51;;;;;;;1.73;0.95;;;17.40;99.90;;;;;;5035749;28;20602;-83
2023/09/24 11:15:19;;;;;;;2.15;0.90;;;17.70;99.90;;;;;;5034910;28;20225;-83
2023/09/24 11:17:46;;;;;;;1.40;0.90;;;17.90;99.90;;;;;;5033274;28;20186;-85
2023/09/24 11:20:13;;;;;;;1.23;0.80;;;18.20;99.90;;;;;;5036160;28;20183;-85
2023/09/24 11:22:39;;;;;;;2.08;0.88;;;18.30;99.90;;;;;;5035436;28;20233;-85
2023/09/24 11:25:13;;;;;;;2.10;0.80;;;18.40;99.90;;;;;;5034913;28;20517;-86
2023/09/24 11:27:49;;;;;;;3.90;1.00;;;18.60;99.90;;;;;;5035850;28;20162;-84
2023/09/24 11:30:17;;;;;;;1.50;0.77;;;18.60;99.90;;;;;;5034756;28;20281;-85
2023/09/24 11:32:48;;;;;;;1.67;0.70;;;18.70;99.90;;;;;;5035575;28;20228;-84
2023/09/24 11:35:16;;;;;;;2.20;0.65;;;18.80;99.90;;;;;;5035858;28;20163;-85
2023/09/24 11:37:50;;;;;;;1.83;0.77;;;18.80;99.90;;;;;;5033910;28;20183;-85
2023/09/24 11:40:32;;;;;;;1.58;0.85;;;18.90;99.90;;;;;;5015772;28;20253;-85
2023/09/24 11:43:12;;;;;;;1.50;0.80;;;18.80;99.90;;;;;;5014550;28;20226;-85
2023/09/24 11:45:46;;;;;;;2.30;0.80;;;18.90;99.90;;;;;;5014520;28;20175;-83
2023/09/24 11:48:20;;;;;;;1.60;0.85;;;18.90;99.90;;;;;;5023641;28;20197;-84
2023/09/24 11:50:52;;;;;;;1.65;0.90;;;18.80;99.90;;;;;;5035493;28;20552;-85
2023/09/24 11:53:22;;;;;;;2.45;0.90;;;19.00;99.90;;;;;;5035486;28;20162;-87
2023/09/24 11:55:50;;;;;;;2.50;1.20;;;19.10;99.90;;;;;;5035381;28;20171;-85
2023/09/24 11:58:20;;;;;;;2.63;0.90;;;19.10;99.90;;;;;;5034346;28;20178;-85
2023/09/24 12:00:47;;;;;;;3.08;0.82;;;19.00;99.90;;;;;;5034191;28;20195;-84
2023/09/24 12:03:13;;;;;;;1.63;0.80;;;18.90;99.90;;;;;;5020551;28;20213;-86
2023/09/24 12:05:40;;;;;;;1.88;1.00;;;18.60;99.90;;;;;;5016901;28;20646;-86
2023/09/24 12:08:07;;;;;;;2.35;1.00;;;18.50;99.90;;;;;;5050488;28;20270;-86
2023/09/24 12:10:40;;;;;;;2.78;1.17;;;18.30;99.90;;;;;;5050604;28;20285;-84
2023/09/24 12:13:10;;;;;;;2.63;1.08;;;18.30;99.90;;;;;;5034038;28;20609;-85
2023/09/24 12:15:36;;;;;;;2.78;1.00;;;18.20;99.90;;;;;;5049998;28;20167;-85
2023/09/24 12:18:04;;;;;;;1.70;1.17;;;18.10;99.90;;;;;;5044854;28;20194;-86
2023/09/24 12:20:35;;;;;;;2.22;1.17;;;18.20;99.90;;;;;;5035013;28;20766;-85
2023/09/24 12:23:04;;;;;;;4.15;0.88;;;18.40;99.90;;;;;;5034607;28;20248;-85
2023/09/24 12:25:31;;;;;;;3.15;0.90;;;18.70;99.90;;;;;;5033541;28;20194;-83
2023/09/24 12:27:57;;;;;;;1.73;0.80;;;18.90;99.90;;;;;;5034766;28;20175;-85
2023/09/24 12:30:23;;;;;;;1.98;0.90;;;18.90;99.90;;;;;;5034798;28;20175;-85
2023/09/24 12:32:49;;;;;;;1.95;1.10;;;18.80;99.90;;;;;;5034495;28;20175;-86
2023/09/24 12:35:14;;;;;;;1.80;0.80;;;18.80;99.90;;;;;;5033501;28;20181;-85
2023/09/24 12:37:41;;;;;;;2.67;0.82;;;19.00;99.90;;;;;;5033442;28;20265;-85
2023/09/24 12:40:10;;;;;;;1.08;0.70;;;19.00;99.90;;;;;;5033308;28;20179;-85
2023/09/24 12:42:38;;;;;;;1.48;0.60;;;19.20;99.90;;;;;;5033171;28;20206;-86
2023/09/24 12:45:05;;;;;;;1.75;0.80;;;19.40;99.90;;;;;;5034814;28;20171;-85
2023/09/24 12:47:33;;;;;;;1.00;0.80;;;19.60;99.90;;;;;;5033254;28;20190;-86
2023/09/24 12:50:04;;;;;;;1.50;0.80;;;19.70;99.90;;;;;;5033394;28;20197;-86